createdAt,value
2023-05-18T00:02:21.688Z,8.97
2023-05-18T00:04:49.901Z,8.98
2023-05-18T00:07:17.807Z,8.98
2023-05-18T00:09:45.700Z,8.97
2023-05-18T00:12:13.590Z,8.92
2023-05-18T00:14:41.291Z,8.86
2023-05-18T00:17:08.956Z,8.77
2023-05-18T00:19:36.675Z,8.73
2023-05-18T00:22:08.056Z,8.72
2023-05-18T00:24:37.125Z,8.74
2023-05-18T00:27:05.023Z,8.78
2023-05-18T00:29:32.899Z,8.77
2023-05-18T00:32:00.800Z,8.73
2023-05-18T00:34:28.606Z,8.71
2023-05-18T00:36:56.514Z,8.67
2023-05-18T00:39:24.204Z,8.69
2023-05-18T00:41:52.016Z,8.69
2023-05-18T00:44:19.888Z,8.64
2023-05-18T00:46:47.654Z,8.62
2023-05-18T00:49:15.532Z,8.56
2023-05-18T00:51:44.358Z,8.54
2023-05-18T00:54:12.347Z,8.54
2023-05-18T00:56:42.134Z,8.51
2023-05-18T00:59:12.059Z,8.53
2023-05-18T01:01:44.058Z,8.50
2023-05-18T01:04:16.436Z,8.53
2023-05-18T01:06:46.573Z,8.55
2023-05-18T01:09:16.407Z,8.57
2023-05-18T01:12:00.042Z,8.58
2023-05-18T01:14:42.821Z,8.52
2023-05-18T01:17:10.973Z,8.45
2023-05-18T01:19:49.835Z,8.39
2023-05-18T01:22:36.413Z,8.32
2023-05-18T01:25:19.459Z,8.27
2023-05-18T01:27:49.676Z,8.26
2023-05-18T01:30:18.305Z,8.24
2023-05-18T01:32:47.241Z,8.25
2023-05-18T01:35:15.016Z,8.23
2023-05-18T01:37:42.710Z,8.17
2023-05-18T01:40:11.234Z,8.18
2023-05-18T01:42:46.884Z,8.18
2023-05-18T01:45:22.365Z,8.08
2023-05-18T01:47:55.241Z,8.01
2023-05-18T01:50:32.054Z,7.98
2023-05-18T01:53:12.029Z,7.90
2023-05-18T01:55:41.743Z,7.81
2023-05-18T01:58:11.236Z,7.77
2023-05-18T02:00:39.640Z,7.71
2023-05-18T02:03:07.594Z,7.70
2023-05-18T02:05:35.659Z,7.69
2023-05-18T02:08:03.555Z,7.69
2023-05-18T02:10:31.592Z,7.73
2023-05-18T02:12:59.330Z,7.76
2023-05-18T02:15:27.100Z,7.76
2023-05-18T02:17:58.294Z,7.76
2023-05-18T02:20:27.425Z,7.76
2023-05-18T02:22:56.297Z,7.75
2023-05-18T02:25:24.153Z,7.71
2023-05-18T02:27:52.896Z,7.66
2023-05-18T02:30:21.109Z,7.62
2023-05-18T02:32:49.425Z,7.59
2023-05-18T02:35:20.705Z,7.56
2023-05-18T02:37:50.174Z,7.52
2023-05-18T02:40:18.193Z,7.48
2023-05-18T02:42:46.032Z,7.45
2023-05-18T02:45:13.732Z,7.40
2023-05-18T02:47:43.984Z,7.35
2023-05-18T02:50:12.034Z,7.33
2023-05-18T02:52:39.774Z,7.31
2023-05-18T02:55:08.081Z,7.29
2023-05-18T02:57:35.788Z,7.28
2023-05-18T03:00:10.144Z,7.26
2023-05-18T03:02:39.093Z,7.25
2023-05-18T03:05:07.737Z,7.24
2023-05-18T03:07:35.441Z,7.25
2023-05-18T03:10:04.291Z,7.23
2023-05-18T03:12:31.979Z,7.23
2023-05-18T03:14:59.766Z,7.21
2023-05-18T03:17:27.555Z,7.20
2023-05-18T03:19:55.752Z,7.19
2023-05-18T03:22:23.415Z,7.18
2023-05-18T03:24:51.425Z,7.19
2023-05-18T03:27:23.287Z,7.21
2023-05-18T03:29:56.372Z,7.24
2023-05-18T03:32:28.507Z,7.23
2023-05-18T03:34:56.326Z,7.19
2023-05-18T03:37:24.033Z,7.13
2023-05-18T03:39:51.861Z,7.10
2023-05-18T03:42:19.557Z,7.08
2023-05-18T03:44:47.243Z,7.06
2023-05-18T03:47:15.124Z,7.06
2023-05-18T03:49:42.840Z,7.07
2023-05-18T03:52:11.530Z,7.10
2023-05-18T03:54:39.716Z,7.09
2023-05-18T03:57:07.424Z,7.13
2023-05-18T03:59:35.111Z,7.14
2023-05-18T04:02:02.889Z,7.16
2023-05-18T04:04:31.037Z,7.18
2023-05-18T04:07:02.081Z,7.21
2023-05-18T04:09:29.767Z,7.22
2023-05-18T04:11:57.510Z,7.21
2023-05-18T04:14:28.218Z,7.22
2023-05-18T04:16:58.465Z,7.21
2023-05-18T04:19:26.357Z,7.20
2023-05-18T04:21:54.594Z,7.22
2023-05-18T04:24:22.808Z,7.22
2023-05-18T04:26:50.518Z,7.22
2023-05-18T04:29:18.196Z,7.21
2023-05-18T04:31:48.927Z,7.22
2023-05-18T04:34:18.018Z,7.27
2023-05-18T04:36:46.402Z,7.29
2023-05-18T04:39:14.461Z,7.30
2023-05-18T04:41:42.343Z,7.33
2023-05-18T04:44:10.326Z,7.35
2023-05-18T04:46:39.976Z,7.40
2023-05-18T04:49:08.081Z,7.43
2023-05-18T04:51:37.003Z,7.48
2023-05-18T04:54:06.432Z,7.56
2023-05-18T04:56:34.568Z,7.62
2023-05-18T04:59:02.824Z,7.67
2023-05-18T05:01:31.149Z,7.71
2023-05-18T05:03:59.890Z,7.73
2023-05-18T05:06:27.829Z,7.75
2023-05-18T05:08:55.712Z,7.75
2023-05-18T05:11:23.579Z,7.76
2023-05-18T05:13:51.416Z,7.79
2023-05-18T05:16:19.228Z,7.82
2023-05-18T05:18:47.490Z,7.83
2023-05-18T05:21:15.415Z,7.88
2023-05-18T05:23:45.296Z,7.95
2023-05-18T05:26:13.069Z,8.01
2023-05-18T05:28:40.994Z,8.03
2023-05-18T05:31:09.587Z,8.03
2023-05-18T05:33:37.419Z,8.07
2023-05-18T05:36:05.486Z,8.13
2023-05-18T05:38:33.273Z,8.16
2023-05-18T05:41:01.726Z,8.26
2023-05-18T05:43:29.455Z,8.31
2023-05-18T05:45:57.151Z,8.35
2023-05-18T05:48:24.849Z,8.35
2023-05-18T05:50:52.614Z,8.38
2023-05-18T05:53:21.086Z,8.45
2023-05-18T05:55:48.918Z,8.55
2023-05-18T05:58:16.790Z,8.70
2023-05-18T06:00:47.317Z,8.82
2023-05-18T06:03:15.107Z,8.87
2023-05-18T06:05:43.074Z,8.94
2023-05-18T06:08:10.928Z,9.04
2023-05-18T06:10:39.369Z,9.09
2023-05-18T06:13:07.517Z,9.12
2023-05-18T06:15:35.440Z,9.15
2023-05-18T06:18:03.342Z,9.19
2023-05-18T06:20:31.190Z,9.22
2023-05-18T06:22:58.893Z,9.27
2023-05-18T06:25:26.638Z,9.32
2023-05-18T06:27:54.427Z,9.36
2023-05-18T06:30:22.206Z,9.44
2023-05-18T06:32:49.994Z,9.52
2023-05-18T06:35:17.875Z,9.59
2023-05-18T06:37:46.978Z,9.64
2023-05-18T06:40:14.927Z,9.71
2023-05-18T06:42:42.652Z,9.74
2023-05-18T06:45:11.332Z,9.77
2023-05-18T06:47:39.140Z,9.77
2023-05-18T06:50:07.673Z,9.75
2023-05-18T06:52:35.918Z,9.72
2023-05-18T06:55:05.523Z,9.69
2023-05-18T06:57:34.035Z,9.70
2023-05-18T07:00:01.948Z,9.72
2023-05-18T07:02:29.755Z,9.74
2023-05-18T07:04:58.185Z,9.75
2023-05-18T07:07:26.080Z,9.76
2023-05-18T07:09:55.188Z,9.75
2023-05-18T07:12:23.553Z,9.74
2023-05-18T07:14:52.100Z,9.76
2023-05-18T07:17:19.877Z,9.77
2023-05-18T07:19:47.600Z,9.76
2023-05-18T07:22:15.489Z,9.77
2023-05-18T07:24:43.507Z,9.78
2023-05-18T07:27:11.362Z,9.82
2023-05-18T07:29:39.118Z,9.84
2023-05-18T07:32:07.273Z,9.88
2023-05-18T07:34:35.652Z,9.91
2023-05-18T07:37:03.506Z,9.98
2023-05-18T07:39:31.400Z,10.04
2023-05-18T07:41:59.332Z,10.11
2023-05-18T07:44:27.206Z,10.18
2023-05-18T07:46:55.152Z,10.28
2023-05-18T07:49:26.226Z,10.32
2023-05-18T07:51:54.193Z,10.36
2023-05-18T07:54:21.984Z,10.43
2023-05-18T07:56:49.672Z,10.52
2023-05-18T07:59:17.792Z,10.64
2023-05-18T08:01:46.282Z,10.77
2023-05-18T08:04:14.458Z,10.89
2023-05-18T08:06:42.499Z,11.01
2023-05-18T08:09:10.477Z,11.11
2023-05-18T08:11:38.957Z,11.16
2023-05-18T08:14:06.809Z,11.27
2023-05-18T08:16:37.908Z,11.36
2023-05-18T08:19:06.024Z,11.43
2023-05-18T08:21:34.645Z,11.53
2023-05-18T08:24:07.553Z,11.64
2023-05-18T08:26:35.343Z,11.72
2023-05-18T08:29:09.756Z,11.70
2023-05-18T08:31:38.686Z,11.75
2023-05-18T08:34:08.248Z,11.80
2023-05-18T08:36:37.200Z,11.72
2023-05-18T08:39:05.673Z,11.72
2023-05-18T08:41:38.925Z,11.77
2023-05-18T08:44:15.919Z,11.85
2023-05-18T08:46:48.413Z,11.89
2023-05-18T08:49:19.029Z,11.87
2023-05-18T08:51:49.252Z,11.91
2023-05-18T08:54:21.606Z,11.99
2023-05-18T08:56:50.088Z,12.00
2023-05-18T08:59:24.610Z,12.00
2023-05-18T09:01:55.082Z,12.03
2023-05-18T09:04:24.008Z,12.08
2023-05-18T09:06:54.367Z,12.02
2023-05-18T09:09:23.866Z,12.10
2023-05-18T09:11:52.541Z,12.18
2023-05-18T09:14:25.815Z,12.25
2023-05-18T09:16:54.468Z,12.25
2023-05-18T09:19:24.889Z,12.25
2023-05-18T09:21:53.059Z,12.28
2023-05-18T09:24:23.047Z,12.40
2023-05-18T09:26:53.490Z,12.47
2023-05-18T09:29:24.255Z,12.52
2023-05-18T09:31:54.286Z,12.52
2023-05-18T09:34:22.873Z,12.58
2023-05-18T09:36:53.112Z,12.63
2023-05-18T09:39:21.062Z,12.65
2023-05-18T09:41:57.217Z,12.67
2023-05-18T09:44:33.774Z,12.72
2023-05-18T09:47:04.027Z,12.75
2023-05-18T09:49:32.049Z,12.74
2023-05-18T09:52:00.449Z,12.77
2023-05-18T09:54:28.885Z,12.83
2023-05-18T09:57:09.615Z,12.89
2023-05-18T09:59:39.020Z,12.95
2023-05-18T10:02:08.916Z,12.94
2023-05-18T10:04:41.530Z,12.83
2023-05-18T10:07:14.941Z,12.78
2023-05-18T10:09:45.350Z,12.86
2023-05-18T10:12:17.852Z,12.97
2023-05-18T10:14:46.320Z,13.08
2023-05-18T10:17:16.922Z,13.10
2023-05-18T10:19:46.418Z,13.09
2023-05-18T10:22:17.740Z,13.04
2023-05-18T10:24:50.204Z,13.01
2023-05-18T10:27:23.348Z,13.02
2023-05-18T10:29:52.721Z,13.07
2023-05-18T10:32:23.195Z,13.13
2023-05-18T10:34:54.176Z,13.22
2023-05-18T10:37:23.871Z,13.33
2023-05-18T10:39:54.877Z,13.39
2023-05-18T10:42:25.221Z,13.46
2023-05-18T10:44:53.803Z,13.54
2023-05-18T10:47:25.268Z,13.48
2023-05-18T10:49:54.679Z,13.36
2023-05-18T10:52:24.489Z,13.33
2023-05-18T10:54:53.221Z,13.32
2023-05-18T10:57:21.939Z,13.33
2023-05-18T10:59:50.236Z,13.38
2023-05-18T11:02:19.092Z,13.37
2023-05-18T11:04:48.139Z,13.29
2023-05-18T11:07:16.048Z,13.25
2023-05-18T11:09:44.886Z,13.29
2023-05-18T11:12:14.647Z,13.37
2023-05-18T11:14:51.070Z,13.44
2023-05-18T11:17:23.553Z,13.55
2023-05-18T11:20:08.757Z,13.61
2023-05-18T11:22:51.542Z,13.54
2023-05-18T11:25:29.187Z,13.53
2023-05-18T11:28:03.514Z,13.55
2023-05-18T11:30:51.781Z,13.51
2023-05-18T11:33:30.829Z,13.43
2023-05-18T11:36:03.289Z,13.46
2023-05-18T11:38:53.032Z,13.48
2023-05-18T11:41:31.094Z,13.41
2023-05-18T11:44:20.417Z,13.45
2023-05-18T11:47:04.633Z,13.51
2023-05-18T11:49:53.927Z,13.53
2023-05-18T11:52:23.302Z,13.56
2023-05-18T11:54:56.569Z,13.59
2023-05-18T11:57:42.190Z,13.61
2023-05-18T12:00:15.936Z,13.61
2023-05-18T12:02:45.688Z,13.65
2023-05-18T12:05:14.865Z,13.64
2023-05-18T12:07:42.867Z,13.56
2023-05-18T12:10:13.042Z,13.57
2023-05-18T12:12:41.781Z,13.57
2023-05-18T12:15:11.838Z,13.60
2023-05-18T12:17:48.070Z,13.66
2023-05-18T12:20:18.487Z,13.71
2023-05-18T12:22:52.333Z,13.72
2023-05-18T12:25:22.158Z,13.72
2023-05-18T12:27:51.861Z,13.75
2023-05-18T12:30:21.642Z,13.83
2023-05-18T12:32:56.105Z,13.88
2023-05-18T12:35:26.337Z,13.87
2023-05-18T12:38:00.311Z,13.89
2023-05-18T12:40:37.824Z,13.93
2023-05-18T12:43:05.699Z,13.97
2023-05-18T12:45:34.737Z,14.00
2023-05-18T12:48:07.757Z,14.05
2023-05-18T12:50:37.268Z,14.01
2023-05-18T12:53:05.215Z,13.97
2023-05-18T12:55:33.711Z,13.96
2023-05-18T12:58:04.239Z,13.98
2023-05-18T13:00:34.020Z,13.98
2023-05-18T13:03:07.247Z,13.95
2023-05-18T13:05:35.860Z,13.94
2023-05-18T13:08:04.349Z,13.91
2023-05-18T13:10:33.259Z,13.92
2023-05-18T13:13:04.012Z,13.89
2023-05-18T13:15:37.355Z,13.85
2023-05-18T13:18:10.126Z,13.83
2023-05-18T13:20:50.159Z,13.80
2023-05-18T13:23:21.456Z,13.77
2023-05-18T13:25:49.955Z,13.75
2023-05-18T13:28:20.101Z,13.77
2023-05-18T13:30:49.297Z,13.77
2023-05-18T13:33:18.219Z,13.80
2023-05-18T13:35:48.848Z,13.81
2023-05-18T13:38:16.776Z,13.85
2023-05-18T13:40:46.602Z,13.92
2023-05-18T13:43:14.380Z,13.95
2023-05-18T13:45:42.381Z,13.88
2023-05-18T13:48:10.935Z,13.81
2023-05-18T13:50:39.716Z,13.77
2023-05-18T13:53:07.589Z,13.74
2023-05-18T13:55:36.352Z,13.71
2023-05-18T13:58:04.138Z,13.72
2023-05-18T14:00:33.789Z,13.78
2023-05-18T14:03:02.917Z,13.84
2023-05-18T14:05:30.901Z,13.83
2023-05-18T14:07:59.216Z,13.78
2023-05-18T14:10:27.034Z,13.69
2023-05-18T14:12:54.927Z,13.59
2023-05-18T14:15:22.781Z,13.60
2023-05-18T14:17:50.575Z,13.61
2023-05-18T14:20:19.956Z,13.60
2023-05-18T14:22:48.296Z,13.56
2023-05-18T14:25:16.407Z,13.53
2023-05-18T14:27:44.648Z,13.55
2023-05-18T14:30:13.376Z,13.54
2023-05-18T14:32:41.196Z,13.53
2023-05-18T14:35:09.385Z,13.51
2023-05-18T14:37:37.265Z,13.49
2023-05-18T14:40:06.787Z,13.46
2023-05-18T14:42:37.253Z,13.45
2023-05-18T14:45:05.970Z,13.44
2023-05-18T14:47:33.765Z,13.39
2023-05-18T14:50:01.664Z,13.32
2023-05-18T14:52:29.408Z,13.28
2023-05-18T14:54:57.202Z,13.27
2023-05-18T14:57:26.635Z,13.22
2023-05-18T14:59:54.877Z,13.17
2023-05-18T15:02:22.765Z,13.11
2023-05-18T15:04:50.735Z,13.08
2023-05-18T15:07:18.682Z,13.06
2023-05-18T15:09:46.479Z,13.05
2023-05-18T15:12:14.348Z,13.05
2023-05-18T15:14:42.049Z,13.04
2023-05-18T15:17:09.991Z,13.04
2023-05-18T15:19:37.759Z,13.01
2023-05-18T15:22:05.609Z,13.00
2023-05-18T15:24:33.476Z,13.00
2023-05-18T15:27:03.369Z,12.98
2023-05-18T15:29:31.197Z,12.97
2023-05-18T15:31:59.852Z,12.98
2023-05-18T15:34:27.716Z,12.96
2023-05-18T15:36:55.734Z,12.94
2023-05-18T15:39:23.498Z,12.95
2023-05-18T15:41:51.173Z,12.93
2023-05-18T15:44:19.293Z,12.93
2023-05-18T15:46:47.406Z,12.92
2023-05-18T15:49:15.225Z,12.94
2023-05-18T15:51:42.948Z,12.95
2023-05-18T15:54:10.717Z,12.98
2023-05-18T15:56:38.828Z,12.99
2023-05-18T15:59:08.380Z,13.00
2023-05-18T16:01:36.752Z,13.01
2023-05-18T16:04:04.715Z,13.02
2023-05-18T16:06:36.292Z,13.03
2023-05-18T16:09:04.197Z,13.05
2023-05-18T16:11:32.379Z,13.06
2023-05-18T16:14:00.693Z,13.07
2023-05-18T16:16:29.033Z,13.08
2023-05-18T16:18:57.339Z,13.10
2023-05-18T16:21:25.204Z,13.10
2023-05-18T16:23:52.961Z,13.11
2023-05-18T16:26:22.093Z,13.12
2023-05-18T16:28:50.350Z,13.11
2023-05-18T16:31:18.385Z,13.11
2023-05-18T16:33:46.368Z,13.10
2023-05-18T16:36:14.403Z,13.10
2023-05-18T16:38:42.515Z,13.08
2023-05-18T16:41:11.086Z,13.06
2023-05-18T16:43:39.060Z,13.05
2023-05-18T16:46:06.978Z,13.03
2023-05-18T16:48:34.802Z,13.02
2023-05-18T16:51:06.765Z,13.01
2023-05-18T16:53:34.970Z,13.01
2023-05-18T16:56:03.821Z,12.99
2023-05-18T16:58:32.070Z,12.98
2023-05-18T17:01:00.042Z,12.96
2023-05-18T17:03:28.063Z,12.93
2023-05-18T17:05:56.085Z,12.92
2023-05-18T17:08:24.013Z,12.89
2023-05-18T17:10:52.747Z,12.86
2023-05-18T17:13:20.658Z,12.83
2023-05-18T17:15:48.948Z,12.80
2023-05-18T17:18:17.038Z,12.78
2023-05-18T17:20:44.801Z,12.76
2023-05-18T17:23:17.757Z,12.74
2023-05-18T17:25:46.347Z,12.72
2023-05-18T17:28:16.564Z,12.70
2023-05-18T17:30:44.757Z,12.68
2023-05-18T17:33:12.661Z,12.65
2023-05-18T17:35:40.828Z,12.62
2023-05-18T17:38:08.600Z,12.59
2023-05-18T17:40:36.366Z,12.56
2023-05-18T17:43:04.216Z,12.53
2023-05-18T17:45:32.102Z,12.51
2023-05-18T17:48:00.681Z,12.50
2023-05-18T17:50:28.510Z,12.47
2023-05-18T17:52:56.257Z,12.44
2023-05-18T17:55:24.322Z,12.43
2023-05-18T17:57:52.234Z,12.41
2023-05-18T18:00:20.625Z,12.38
2023-05-18T18:02:48.375Z,12.35
2023-05-18T18:05:16.546Z,12.34
2023-05-18T18:07:45.165Z,12.31
2023-05-18T18:10:13.838Z,12.28
2023-05-18T18:12:42.008Z,12.25
2023-05-18T18:15:11.456Z,12.23
2023-05-18T18:17:39.757Z,12.21
2023-05-18T18:20:09.850Z,12.19
2023-05-18T18:22:37.877Z,12.17
2023-05-18T18:25:05.963Z,12.16
2023-05-18T18:27:34.298Z,12.16
2023-05-18T18:30:02.173Z,12.15
2023-05-18T18:32:30.317Z,12.14
2023-05-18T18:34:59.065Z,12.13
2023-05-18T18:37:28.607Z,12.11
2023-05-18T18:39:57.171Z,12.10
2023-05-18T18:42:25.202Z,12.08
2023-05-18T18:44:56.956Z,12.06
2023-05-18T18:47:25.195Z,12.03
2023-05-18T18:49:53.192Z,12.01
2023-05-18T18:52:21.036Z,11.99
2023-05-18T18:54:49.172Z,11.97
2023-05-18T18:57:16.914Z,11.93
2023-05-18T18:59:44.705Z,11.91
2023-05-18T19:02:12.558Z,11.88
2023-05-18T19:04:40.430Z,11.86
2023-05-18T19:07:08.377Z,11.84
2023-05-18T19:09:36.325Z,11.81
2023-05-18T19:12:05.143Z,11.79
2023-05-18T19:14:33.005Z,11.77
2023-05-18T19:17:00.955Z,11.75
2023-05-18T19:19:29.754Z,11.73
2023-05-18T19:21:57.679Z,11.73
2023-05-18T19:24:26.086Z,11.72
2023-05-18T19:26:53.927Z,11.71
2023-05-18T19:29:21.894Z,11.70
2023-05-18T19:31:49.673Z,11.68
2023-05-18T19:34:17.556Z,11.68
2023-05-18T19:36:45.528Z,11.66
2023-05-18T19:39:16.797Z,11.64
2023-05-18T19:41:45.773Z,11.63
2023-05-18T19:44:14.544Z,11.62
2023-05-18T19:46:43.302Z,11.59
2023-05-18T19:49:11.304Z,11.57
2023-05-18T19:51:39.800Z,11.55
2023-05-18T19:54:07.816Z,11.54
2023-05-18T19:56:38.343Z,11.53
2023-05-18T19:59:06.331Z,11.52
2023-05-18T20:01:34.123Z,11.51
2023-05-18T20:04:01.929Z,11.51
2023-05-18T20:06:31.728Z,11.49
2023-05-18T20:09:00.791Z,11.48
2023-05-18T20:11:28.592Z,11.45
2023-05-18T20:13:56.490Z,11.39
2023-05-18T20:16:26.419Z,11.39
2023-05-18T20:18:54.327Z,11.37
2023-05-18T20:21:22.790Z,11.37
2023-05-18T20:23:50.613Z,11.36
2023-05-18T20:26:18.569Z,11.34
2023-05-18T20:28:46.425Z,11.33
2023-05-18T20:31:14.261Z,11.32
2023-05-18T20:33:42.884Z,11.32
2023-05-18T20:36:10.627Z,11.30
2023-05-18T20:38:38.803Z,11.30
2023-05-18T20:41:08.173Z,11.28
2023-05-18T20:43:37.834Z,11.26
2023-05-18T20:46:05.856Z,11.24
2023-05-18T20:48:36.060Z,11.23
2023-05-18T20:51:03.990Z,11.22
2023-05-18T20:53:31.764Z,11.21
2023-05-18T20:56:01.361Z,11.21
2023-05-18T20:58:29.358Z,11.21
2023-05-18T21:00:57.075Z,11.20
2023-05-18T21:03:24.984Z,11.20
2023-05-18T21:05:53.351Z,11.20
2023-05-18T21:08:21.061Z,11.20
2023-05-18T21:10:48.751Z,11.20
2023-05-18T21:13:16.665Z,11.20
2023-05-18T21:15:44.492Z,11.20
2023-05-18T21:18:12.814Z,11.19
2023-05-18T21:20:40.540Z,11.18
2023-05-18T21:23:08.409Z,11.17
2023-05-18T21:25:36.210Z,11.16
2023-05-18T21:28:04.699Z,11.15
2023-05-18T21:30:32.667Z,11.15
2023-05-18T21:33:01.025Z,11.15
2023-05-18T21:35:29.009Z,11.15
2023-05-18T21:37:56.981Z,11.14
2023-05-18T21:40:24.712Z,11.14
2023-05-18T21:42:52.480Z,11.13
2023-05-18T21:45:22.684Z,11.12
2023-05-18T21:47:50.916Z,11.12
2023-05-18T21:50:18.867Z,11.12
2023-05-18T21:52:46.995Z,11.10
2023-05-18T21:55:14.754Z,11.08
2023-05-18T21:57:42.446Z,11.07
2023-05-18T22:00:13.989Z,11.06
2023-05-18T22:02:41.889Z,11.04
2023-05-18T22:05:10.243Z,11.03
2023-05-18T22:07:38.159Z,11.02
2023-05-18T22:10:07.004Z,11.00
2023-05-18T22:12:37.569Z,10.98
2023-05-18T22:15:06.638Z,10.94
2023-05-18T22:17:36.880Z,10.95
2023-05-18T22:20:07.149Z,10.95
2023-05-18T22:22:34.860Z,10.95
2023-05-18T22:25:02.590Z,10.97
2023-05-18T22:27:30.574Z,10.96
2023-05-18T22:29:58.406Z,10.96
2023-05-18T22:32:26.337Z,10.97
2023-05-18T22:34:55.850Z,10.96
2023-05-18T22:37:23.676Z,10.95
2023-05-18T22:39:51.508Z,10.93
2023-05-18T22:42:19.454Z,10.93
2023-05-18T22:44:47.374Z,10.94
2023-05-18T22:47:19.719Z,10.93
2023-05-18T22:49:48.074Z,10.92
2023-05-18T22:52:17.934Z,10.91
2023-05-18T22:54:46.396Z,10.91
2023-05-18T22:57:14.135Z,10.92
2023-05-18T22:59:41.870Z,10.91
2023-05-18T23:02:09.701Z,10.90
2023-05-18T23:04:37.755Z,10.88
2023-05-18T23:07:05.652Z,10.88
2023-05-18T23:09:33.926Z,10.87
2023-05-18T23:12:01.757Z,10.86
2023-05-18T23:14:31.368Z,10.85
2023-05-18T23:17:00.384Z,10.84
2023-05-18T23:19:29.240Z,10.82
2023-05-18T23:21:57.196Z,10.81
2023-05-18T23:24:24.930Z,10.79
2023-05-18T23:26:52.733Z,10.78
2023-05-18T23:29:20.771Z,10.77
2023-05-18T23:31:48.672Z,10.76
2023-05-18T23:34:16.956Z,10.77
2023-05-18T23:36:45.442Z,10.76
2023-05-18T23:39:14.263Z,10.75
2023-05-18T23:41:43.746Z,10.76
2023-05-18T23:44:11.801Z,10.76
2023-05-18T23:46:39.866Z,10.76
2023-05-18T23:49:07.834Z,10.75
2023-05-18T23:51:36.581Z,10.73
2023-05-18T23:54:07.442Z,10.72
2023-05-18T23:56:36.173Z,10.70
2023-05-18T23:59:04.310Z,10.69
